Time;durP1;ratioP1;P1;durP2;ratioP2;P2;SDS_P1;SDS_P2;PMS_P1;PMS_P2;Temp;Humidity;BMP_temperature;BMP_pressure;BME280_temperature;BME280_humidity;BME280_pressure;Samples;Min_cycle;Max_cycle;Signal;HPM_P1;HPM_P2
2024/01/30 00:01:39;;;;;;;16.23;11.13;;;9.50;99.90;;;;;;4953798;28;49818;-82
2024/01/30 00:04:18;;;;;;;19.38;12.60;;;9.60;99.90;;;;;;4933996;28;39745;-83
2024/01/30 00:07:17;;;;;;;17.27;10.67;;;9.60;99.90;;;;;;5115208;23;38808;-83
2024/01/30 00:10:05;;;;;;;14.73;11.43;;;9.60;99.90;;;;;;4955239;28;37580;-82
2024/01/30 00:15:22;;;;;;;16.53;12.33;;;9.80;99.90;;;;;;5381255;23;20066;-84
2024/01/30 00:17:57;;;;;;;17.10;11.03;;;9.80;99.90;;;;;;4944211;28;37788;-83
2024/01/30 00:29:29;;;;;;;;;;;;;;;;;;;;;
2024/01/30 00:32:23;;;;;;;15.40;10.40;;;9.70;99.90;;;;;;4939860;28;49397;-81
2024/01/30 00:35:31;;;;;;;16.63;10.90;;;9.80;99.90;;;;;;4903237;28;49280;-81
2024/01/30 00:40:41;;;;;;;16.33;10.60;;;9.70;99.90;;;;;;5770501;23;20052;-82
2024/01/30 00:43:34;;;;;;;12.63;10.60;;;9.80;99.90;;;;;;4943177;28;38859;-83
2024/01/30 00:46:08;;;;;;;14.60;9.83;;;9.80;99.90;;;;;;4944634;28;41431;-82
2024/01/30 00:48:44;;;;;;;15.97;9.97;;;9.80;99.90;;;;;;4960948;28;48302;-83
2024/01/30 00:51:22;;;;;;;12.80;10.03;;;9.90;99.90;;;;;;4967755;28;39065;-82
2024/01/30 00:54:10;;;;;;;13.53;9.47;;;9.90;99.90;;;;;;4961677;28;36845;-82
2024/01/30 01:10:31;;;;;;;13.40;9.57;;;10.00;99.90;;;;;;5018880;23;20036;-83
2024/01/30 01:17:01;;;;;;;12.77;9.60;;;9.90;99.90;;;;;;4903345;28;50870;-84
2024/01/30 01:30:09;;;;;;;14.00;9.77;;;9.90;99.90;;;;;;5698538;23;20025;-82
2024/01/30 01:38:14;;;;;;;13.03;8.90;;;10.00;99.90;;;;;;5259519;23;20050;-83
2024/01/30 01:44:16;;;;;;;17.40;9.50;;;10.00;99.90;;;;;;5298053;23;20053;-83
2024/01/30 01:47:33;;;;;;;12.83;8.83;;;10.00;99.90;;;;;;4932232;28;39103;-82
2024/01/30 01:59:04;;;;;;;13.30;8.90;;;10.10;99.90;;;;;;5737005;23;20055;-83
2024/01/30 02:04:07;;;;;;;16.67;10.13;;;10.10;99.90;;;;;;4972855;28;20085;-80
2024/01/30 02:06:37;;;;;;;11.43;9.20;;;10.10;99.90;;;;;;4974335;28;37099;-80
2024/01/30 02:09:04;;;;;;;11.40;9.40;;;10.10;99.90;;;;;;4990059;28;38187;-79
2024/01/30 02:11:31;;;;;;;11.93;9.40;;;10.20;99.90;;;;;;4980914;28;36548;-81
2024/01/30 02:14:03;;;;;;;14.93;8.53;;;10.20;99.90;;;;;;4990155;28;39159;-80
2024/01/30 02:16:31;;;;;;;13.53;8.87;;;10.20;99.90;;;;;;4966939;28;47247;-80
2024/01/30 02:19:00;;;;;;;14.20;9.43;;;10.20;99.90;;;;;;4973695;28;36793;-80
2024/01/30 02:21:34;;;;;;;12.57;8.87;;;10.20;99.90;;;;;;4989209;28;37843;-80
2024/01/30 02:24:02;;;;;;;13.93;9.63;;;10.20;99.90;;;;;;4974382;28;39018;-79
2024/01/30 02:26:36;;;;;;;12.07;8.93;;;10.10;99.90;;;;;;4990792;28;48976;-81
2024/01/30 02:29:02;;;;;;;15.07;9.13;;;10.20;99.90;;;;;;4976742;28;37832;-80
2024/01/30 02:31:31;;;;;;;11.53;8.60;;;10.10;99.90;;;;;;4965722;28;36758;-79
2024/01/30 02:33:57;;;;;;;12.07;9.60;;;10.10;99.90;;;;;;4994684;28;40347;-81
2024/01/30 02:36:25;;;;;;;10.30;8.60;;;10.00;99.90;;;;;;4996078;28;39837;-81
2024/01/30 02:38:58;;;;;;;13.83;9.53;;;10.00;99.90;;;;;;4984732;28;39511;-82
2024/01/30 02:41:26;;;;;;;12.40;8.73;;;10.00;99.90;;;;;;4968032;28;37644;-82
2024/01/30 02:43:55;;;;;;;13.67;9.70;;;10.00;99.90;;;;;;4979096;28;39177;-82
2024/01/30 02:46:24;;;;;;;15.80;9.07;;;10.00;99.90;;;;;;4977308;28;38574;-81
2024/01/30 02:48:52;;;;;;;14.27;9.50;;;10.00;99.90;;;;;;4991000;28;37917;-82
2024/01/30 02:51:18;;;;;;;13.33;9.50;;;10.00;99.90;;;;;;4976647;28;36935;-80
2024/01/30 02:53:47;;;;;;;13.17;8.77;;;10.00;99.90;;;;;;4992816;28;38028;-81
2024/01/30 02:56:49;;;;;;;10.77;9.13;;;10.10;99.90;;;;;;4986468;28;37579;-82
2024/01/30 02:59:17;;;;;;;14.20;9.40;;;10.10;99.90;;;;;;4978736;28;37348;-82
2024/01/30 03:01:44;;;;;;;13.23;9.10;;;10.10;99.90;;;;;;4973464;28;36511;-83
2024/01/30 03:04:11;;;;;;;13.47;9.67;;;10.10;99.90;;;;;;4973557;28;40613;-83
2024/01/30 03:06:37;;;;;;;14.17;9.47;;;10.10;99.90;;;;;;4978315;28;38119;-83
2024/01/30 03:09:04;;;;;;;14.17;9.80;;;10.10;99.90;;;;;;4983009;28;37207;-83
2024/01/30 03:11:31;;;;;;;12.83;9.47;;;10.10;99.90;;;;;;4996668;28;38007;-82
2024/01/30 03:13:57;;;;;;;13.33;9.37;;;10.10;99.90;;;;;;4995578;28;40089;-81
2024/01/30 03:16:30;;;;;;;12.07;9.57;;;10.10;99.90;;;;;;4993473;28;38208;-80
2024/01/30 03:19:05;;;;;;;10.77;8.70;;;10.10;99.90;;;;;;4982306;28;37725;-81
2024/01/30 03:21:31;;;;;;;13.67;9.67;;;10.10;99.90;;;;;;5004426;28;46877;-80
2024/01/30 03:23:59;;;;;;;11.73;9.17;;;10.10;99.90;;;;;;4995507;28;38982;-80
2024/01/30 03:26:25;;;;;;;13.67;8.77;;;10.00;99.90;;;;;;4971179;28;37931;-81
2024/01/30 03:28:52;;;;;;;11.77;8.67;;;10.00;99.90;;;;;;4991387;28;37448;-81
2024/01/30 03:31:18;;;;;;;12.57;9.33;;;10.00;99.90;;;;;;4986216;28;38574;-81
2024/01/30 03:33:45;;;;;;;10.57;9.00;;;10.00;99.90;;;;;;4972044;28;37514;-82
2024/01/30 03:36:11;;;;;;;15.90;9.37;;;10.00;99.90;;;;;;4988021;28;38202;-80
2024/01/30 03:38:38;;;;;;;11.83;8.97;;;10.00;99.90;;;;;;4990997;28;36897;-81
2024/01/30 03:41:08;;;;;;;12.67;9.83;;;10.00;99.90;;;;;;4972255;28;36250;-81
2024/01/30 03:43:34;;;;;;;14.67;9.67;;;10.00;99.90;;;;;;4994300;28;39922;-80
2024/01/30 03:46:02;;;;;;;15.03;9.47;;;10.00;99.90;;;;;;4970960;28;37569;-82
2024/01/30 03:48:29;;;;;;;13.73;10.57;;;10.00;99.90;;;;;;4979504;28;47514;-81
2024/01/30 03:50:56;;;;;;;13.03;8.90;;;10.00;99.90;;;;;;4974761;28;36364;-82
2024/01/30 03:53:22;;;;;;;14.83;9.63;;;10.00;99.90;;;;;;4980393;28;38766;-82
2024/01/30 03:55:48;;;;;;;13.23;9.13;;;10.00;99.90;;;;;;4990550;28;37750;-82
2024/01/30 03:58:16;;;;;;;12.03;9.17;;;10.00;99.90;;;;;;4975913;28;36590;-82
2024/01/30 04:00:42;;;;;;;13.07;9.67;;;10.00;99.90;;;;;;4981221;28;37537;-81
2024/01/30 04:03:09;;;;;;;14.47;10.23;;;10.00;99.90;;;;;;4996437;28;40254;-80
2024/01/30 04:05:35;;;;;;;15.73;10.83;;;10.00;99.90;;;;;;4977612;28;39882;-80
2024/01/30 04:08:01;;;;;;;12.53;10.00;;;10.00;99.90;;;;;;4998883;28;39344;-80
2024/01/30 04:10:28;;;;;;;13.87;10.17;;;10.00;99.90;;;;;;4992311;28;47399;-80
2024/01/30 04:12:57;;;;;;;11.37;9.20;;;9.90;99.90;;;;;;4987576;28;38153;-79
2024/01/30 04:15:24;;;;;;;15.50;9.67;;;10.00;99.90;;;;;;4976413;28;37652;-79
2024/01/30 04:17:50;;;;;;;12.30;9.10;;;9.90;99.90;;;;;;4975792;28;37809;-80
2024/01/30 04:20:17;;;;;;;12.77;9.53;;;9.90;99.90;;;;;;4980017;28;38504;-81
2024/01/30 04:22:44;;;;;;;13.43;9.57;;;9.90;99.90;;;;;;4987286;28;40267;-79
2024/01/30 04:25:11;;;;;;;14.07;9.67;;;9.90;99.90;;;;;;4991358;28;39749;-81
2024/01/30 04:27:50;;;;;;;12.27;9.83;;;9.90;99.90;;;;;;4980146;28;37906;-80
2024/01/30 04:30:16;;;;;;;12.77;9.83;;;9.90;99.90;;;;;;4968222;28;36466;-81
2024/01/30 04:32:43;;;;;;;12.40;9.50;;;9.90;99.90;;;;;;4992780;28;39129;-81
2024/01/30 04:35:10;;;;;;;17.30;9.80;;;9.90;99.90;;;;;;4992733;28;38201;-81
2024/01/30 04:37:36;;;;;;;13.73;9.47;;;10.00;99.90;;;;;;4973052;28;36939;-82
2024/01/30 04:40:08;;;;;;;11.40;8.87;;;10.00;99.90;;;;;;4996166;28;37361;-82
2024/01/30 04:42:36;;;;;;;14.90;9.33;;;10.00;99.90;;;;;;4980409;28;47442;-81
2024/01/30 04:45:03;;;;;;;15.97;10.37;;;10.00;99.90;;;;;;4975617;28;38101;-81
2024/01/30 04:47:29;;;;;;;15.73;10.23;;;10.10;99.90;;;;;;4987684;28;48271;-80
2024/01/30 04:49:55;;;;;;;14.57;9.17;;;10.10;99.90;;;;;;4968960;28;37312;-80
2024/01/30 04:52:21;;;;;;;11.00;8.70;;;10.10;99.90;;;;;;4973397;28;38564;-80
2024/01/30 04:54:47;;;;;;;15.03;9.60;;;10.20;99.90;;;;;;4960728;28;36901;-79
2024/01/30 04:57:14;;;;;;;12.90;9.40;;;10.20;99.90;;;;;;4976904;28;37173;-81
2024/01/30 04:59:40;;;;;;;10.93;8.83;;;10.20;99.90;;;;;;4970339;28;36224;-80
2024/01/30 05:02:07;;;;;;;13.52;9.30;;;10.20;99.90;;;;;;4982751;28;40111;-81
2024/01/30 05:04:34;;;;;;;16.43;10.07;;;10.20;99.90;;;;;;4975151;28;37272;-82
2024/01/30 05:07:00;;;;;;;10.95;8.80;;;10.30;99.90;;;;;;4972014;28;37568;-81
2024/01/30 05:09:26;;;;;;;11.80;8.87;;;10.30;99.90;;;;;;4987276;28;38412;-80
2024/01/30 05:11:55;;;;;;;12.70;9.23;;;10.40;99.90;;;;;;4982140;28;40640;-80
2024/01/30 05:14:22;;;;;;;11.03;8.30;;;10.40;99.90;;;;;;4969054;28;37855;-81
2024/01/30 05:16:48;;;;;;;14.77;9.40;;;10.40;99.90;;;;;;4965195;28;38274;-81
2024/01/30 05:19:14;;;;;;;13.27;10.07;;;10.40;99.90;;;;;;4964232;28;36549;-81
2024/01/30 05:21:41;;;;;;;13.33;8.73;;;10.40;99.90;;;;;;4982349;28;37622;-81
2024/01/30 05:24:09;;;;;;;15.93;9.40;;;10.40;99.90;;;;;;4965945;28;37293;-81
2024/01/30 05:26:36;;;;;;;12.87;9.47;;;10.40;99.90;;;;;;4986967;28;39303;-81
2024/01/30 05:29:02;;;;;;;15.47;9.47;;;10.40;99.90;;;;;;4977456;28;36150;-82
2024/01/30 05:31:29;;;;;;;10.90;8.50;;;10.40;99.90;;;;;;4976730;28;38880;-82
2024/01/30 05:33:55;;;;;;;14.43;9.00;;;10.40;99.90;;;;;;4977546;28;37431;-81
2024/01/30 05:36:21;;;;;;;13.53;9.10;;;10.40;99.90;;;;;;4972624;28;36331;-82
2024/01/30 05:38:47;;;;;;;13.90;8.83;;;10.40;99.90;;;;;;4989823;28;38743;-81
2024/01/30 05:41:13;;;;;;;12.67;8.37;;;10.40;99.90;;;;;;4987221;28;39695;-82
2024/01/30 05:43:40;;;;;;;14.53;9.20;;;10.40;99.90;;;;;;4968770;28;39987;-82
2024/01/30 05:46:06;;;;;;;18.13;10.03;;;10.50;99.90;;;;;;4968613;28;36277;-81
2024/01/30 05:48:35;;;;;;;15.13;9.17;;;10.50;99.90;;;;;;4982453;28;38231;-82
2024/01/30 05:51:02;;;;;;;12.60;9.27;;;10.50;99.90;;;;;;4983998;28;38764;-81
2024/01/30 05:53:29;;;;;;;13.00;8.90;;;10.40;99.90;;;;;;4944529;28;47439;-80
2024/01/30 05:55:55;;;;;;;13.13;9.23;;;10.50;99.90;;;;;;4977969;28;37591;-79
2024/01/30 05:58:21;;;;;;;11.40;8.50;;;10.40;99.90;;;;;;4982237;28;37560;-80
2024/01/30 06:00:48;;;;;;;14.33;9.80;;;10.50;99.90;;;;;;4990238;28;38685;-81
2024/01/30 06:03:15;;;;;;;11.90;8.80;;;10.40;99.90;;;;;;4980615;28;37726;-82
2024/01/30 06:05:43;;;;;;;11.10;8.80;;;10.40;99.90;;;;;;4963633;28;37887;-81
2024/01/30 06:08:09;;;;;;;14.40;8.37;;;10.50;99.90;;;;;;4980408;28;37914;-81
2024/01/30 06:11:24;;;;;;;15.10;8.80;;;10.40;99.90;;;;;;4943148;28;37874;-81
2024/01/30 06:13:50;;;;;;;16.90;9.53;;;10.50;99.90;;;;;;4954648;28;48788;-80
2024/01/30 06:16:16;;;;;;;18.33;9.20;;;10.50;99.90;;;;;;4956585;28;36428;-79
2024/01/30 06:18:43;;;;;;;15.50;9.03;;;10.50;99.90;;;;;;4961395;28;36099;-81
2024/01/30 06:21:10;;;;;;;14.57;8.83;;;10.50;99.90;;;;;;4962421;28;39726;-79
2024/01/30 06:23:36;;;;;;;17.00;9.43;;;10.50;99.90;;;;;;4976697;28;37581;-80
2024/01/30 06:26:07;;;;;;;13.83;9.00;;;10.50;99.90;;;;;;4977590;28;37213;-81
2024/01/30 06:28:34;;;;;;;14.90;9.77;;;10.50;99.90;;;;;;4972071;28;38396;-81
2024/01/30 06:33:31;;;;;;;13.83;8.80;;;10.50;99.90;;;;;;4983234;28;20051;-81
2024/01/30 06:35:57;;;;;;;16.80;9.33;;;10.60;99.90;;;;;;4952659;28;36470;-80
2024/01/30 06:38:24;;;;;;;13.23;8.47;;;10.60;99.90;;;;;;4975819;28;36054;-79
2024/01/30 06:40:50;;;;;;;14.17;9.07;;;10.70;99.90;;;;;;4953751;28;38940;-79
2024/01/30 06:43:18;;;;;;;17.73;8.57;;;10.70;99.90;;;;;;4950929;28;36166;-76
2024/01/30 06:45:47;;;;;;;17.02;9.68;;;10.70;99.90;;;;;;4961820;28;38460;-76
2024/01/30 06:48:14;;;;;;;20.23;9.47;;;10.70;99.90;;;;;;4971448;28;37976;-78
2024/01/30 06:50:41;;;;;;;17.93;8.90;;;10.70;99.90;;;;;;4970330;28;38938;-77
2024/01/30 06:53:07;;;;;;;20.43;9.43;;;10.70;99.90;;;;;;4947964;28;38541;-78
2024/01/30 06:55:33;;;;;;;13.23;8.10;;;10.70;99.90;;;;;;4964557;28;37418;-79
2024/01/30 06:57:59;;;;;;;15.13;9.27;;;10.60;99.90;;;;;;4969353;28;37264;-80
2024/01/30 07:00:25;;;;;;;13.53;9.23;;;10.70;99.90;;;;;;4961809;28;37866;-80
2024/01/30 07:02:51;;;;;;;18.20;9.13;;;10.70;99.90;;;;;;4948437;28;37241;-79
2024/01/30 07:05:17;;;;;;;14.27;9.17;;;10.70;99.90;;;;;;4958943;28;37409;-79
2024/01/30 07:12:55;;;;;;;13.00;8.07;;;10.80;99.90;;;;;;5062294;23;21034;-78
2024/01/30 07:15:21;;;;;;;14.00;9.00;;;10.80;99.90;;;;;;4975748;28;37333;-78
2024/01/30 07:17:47;;;;;;;15.43;9.47;;;10.80;99.90;;;;;;4989569;28;35569;-80
2024/01/30 07:20:14;;;;;;;16.85;9.35;;;10.80;99.90;;;;;;4973687;28;39805;-79
2024/01/30 07:22:41;;;;;;;12.63;8.93;;;10.70;99.90;;;;;;4963650;28;38449;-80
2024/01/30 07:25:07;;;;;;;14.65;9.18;;;10.70;99.90;;;;;;4964888;28;36672;-79
2024/01/30 07:27:33;;;;;;;16.65;9.23;;;10.70;99.90;;;;;;4978791;28;36357;-79
2024/01/30 07:29:59;;;;;;;16.30;9.30;;;10.70;99.90;;;;;;4963221;28;37583;-79
2024/01/30 07:32:25;;;;;;;12.63;8.67;;;10.70;99.90;;;;;;4962515;28;38718;-79
2024/01/30 07:34:51;;;;;;;13.17;9.33;;;10.70;99.90;;;;;;4962748;28;37000;-80
2024/01/30 07:37:17;;;;;;;16.73;8.53;;;10.70;99.90;;;;;;4973864;28;37887;-79
2024/01/30 07:39:43;;;;;;;14.57;9.40;;;10.70;99.90;;;;;;4949758;28;37548;-78
2024/01/30 07:42:10;;;;;;;12.63;9.03;;;10.70;99.90;;;;;;4959206;28;40019;-79
2024/01/30 07:44:36;;;;;;;19.33;10.23;;;10.70;99.90;;;;;;4963926;28;36653;-78
2024/01/30 07:47:03;;;;;;;16.42;9.35;;;10.70;99.90;;;;;;4977347;28;36597;-81
2024/01/30 07:49:29;;;;;;;17.77;9.43;;;10.70;99.90;;;;;;4991737;28;39073;-77
2024/01/30 07:51:55;;;;;;;14.20;8.70;;;10.70;99.90;;;;;;4960645;28;37486;-77
2024/01/30 07:54:21;;;;;;;20.63;9.60;;;10.70;99.90;;;;;;4956726;28;37942;-76
2024/01/30 07:56:47;;;;;;;18.13;8.87;;;10.70;99.90;;;;;;4958658;28;39439;-79
2024/01/30 07:59:13;;;;;;;18.15;9.50;;;10.70;99.90;;;;;;4967955;28;37364;-76
2024/01/30 08:01:39;;;;;;;16.35;8.50;;;10.70;99.90;;;;;;4971781;28;37567;-79
2024/01/30 08:04:06;;;;;;;14.00;8.70;;;10.70;99.90;;;;;;4958318;28;36712;-80
2024/01/30 08:06:33;;;;;;;14.68;9.15;;;10.70;99.90;;;;;;4958072;28;35118;-78
2024/01/30 08:08:59;;;;;;;14.97;8.90;;;10.70;99.90;;;;;;4975902;28;39404;-84
2024/01/30 08:11:27;;;;;;;15.83;9.23;;;10.70;99.90;;;;;;4964102;28;37611;-79
2024/01/30 08:13:53;;;;;;;14.27;8.03;;;10.70;99.90;;;;;;4965092;28;36999;-78
2024/01/30 08:16:19;;;;;;;14.23;8.90;;;10.60;99.90;;;;;;5063882;23;36743;-80
2024/01/30 08:18:46;;;;;;;18.85;9.07;;;10.60;99.90;;;;;;4939918;28;38989;-79
2024/01/30 08:21:12;;;;;;;14.93;8.50;;;10.70;99.90;;;;;;4918668;28;37591;-79
2024/01/30 08:23:41;;;;;;;15.27;8.40;;;10.60;99.90;;;;;;4936537;28;38297;-78
2024/01/30 08:26:07;;;;;;;16.00;9.07;;;10.60;99.90;;;;;;4937034;28;37288;-79
2024/01/30 08:28:33;;;;;;;21.35;10.02;;;10.70;99.90;;;;;;4944844;28;39555;-79
2024/01/30 08:30:59;;;;;;;19.27;9.20;;;10.70;99.90;;;;;;4922921;28;37225;-80
2024/01/30 08:33:25;;;;;;;13.98;8.40;;;10.70;99.90;;;;;;4924957;28;37944;-79
2024/01/30 08:35:52;;;;;;;17.40;10.30;;;10.70;99.90;;;;;;4916758;28;36763;-80
2024/01/30 08:38:18;;;;;;;12.47;9.03;;;10.80;99.90;;;;;;4925780;28;39071;-80
2024/01/30 08:40:45;;;;;;;15.65;9.48;;;10.80;99.90;;;;;;4931611;28;38222;-80
2024/01/30 08:43:11;;;;;;;20.03;9.20;;;10.80;99.90;;;;;;4913678;28;36904;-79
2024/01/30 08:45:37;;;;;;;14.43;9.00;;;10.90;99.90;;;;;;4919700;28;37417;-76
2024/01/30 08:48:04;;;;;;;13.43;8.82;;;10.90;99.90;;;;;;4930542;28;38490;-77
2024/01/30 08:50:30;;;;;;;15.60;9.47;;;10.90;99.90;;;;;;4915446;28;37259;-78
2024/01/30 08:52:57;;;;;;;15.63;9.38;;;11.00;99.90;;;;;;4921588;28;36980;-78
2024/01/30 08:55:23;;;;;;;16.20;9.05;;;11.00;99.90;;;;;;4920860;28;37303;-78
2024/01/30 08:57:49;;;;;;;15.70;9.70;;;11.00;99.90;;;;;;4919370;28;37059;-77
2024/01/30 09:00:16;;;;;;;16.45;8.23;;;10.90;99.90;;;;;;4939621;28;36773;-75
2024/01/30 09:02:42;;;;;;;13.73;9.38;;;11.00;99.90;;;;;;4938618;28;38982;-79
2024/01/30 09:05:08;;;;;;;14.27;9.02;;;11.00;99.90;;;;;;4922772;28;36609;-80
2024/01/30 09:07:34;;;;;;;16.52;8.80;;;11.00;99.90;;;;;;4921333;28;38013;-77
2024/01/30 09:10:00;;;;;;;14.20;9.77;;;11.00;99.90;;;;;;4922072;28;39150;-77
2024/01/30 09:12:27;;;;;;;20.23;8.68;;;11.00;99.90;;;;;;4915859;28;36918;-78
2024/01/30 09:14:53;;;;;;;15.25;9.23;;;11.10;99.90;;;;;;4935681;28;36498;-78
2024/01/30 09:17:19;;;;;;;15.80;8.65;;;11.10;99.90;;;;;;4937711;28;38822;-77
2024/01/30 09:19:46;;;;;;;15.38;9.38;;;11.00;99.90;;;;;;4918524;28;38671;-79
2024/01/30 09:22:12;;;;;;;13.88;9.20;;;11.00;99.90;;;;;;4935279;28;36319;-77
2024/01/30 09:24:39;;;;;;;12.30;8.93;;;11.00;99.90;;;;;;4921968;28;36250;-78
2024/01/30 09:27:06;;;;;;;16.27;9.27;;;11.00;99.90;;;;;;4939882;28;38043;-78
2024/01/30 09:29:34;;;;;;;15.40;8.57;;;11.10;99.90;;;;;;4926692;28;38441;-78
2024/01/30 09:32:06;;;;;;;15.05;9.32;;;11.10;99.90;;;;;;4922701;28;40986;-78
2024/01/30 09:34:35;;;;;;;;;;;11.10;99.90;;;;;;4923350;28;47058;-78
2024/01/30 09:37:01;;;;;;;16.90;8.60;;;11.20;99.90;;;;;;4942069;28;40313;-79
2024/01/30 09:39:30;;;;;;;12.90;9.10;;;11.20;99.90;;;;;;4943051;28;46737;-78
2024/01/30 09:42:26;;;;;;;14.73;9.43;;;11.10;99.90;;;;;;4911230;28;37205;-78
2024/01/30 09:44:56;;;;;;;18.52;8.43;;;11.20;99.90;;;;;;4924319;28;47514;-79
2024/01/30 09:47:28;;;;;;;15.32;9.13;;;11.30;99.90;;;;;;4940691;28;38507;-78
2024/01/30 09:49:56;;;;;;;12.10;8.52;;;11.30;99.90;;;;;;4935527;28;38326;-80
2024/01/30 09:52:25;;;;;;;17.33;8.63;;;11.30;99.90;;;;;;4916247;28;35741;-78
2024/01/30 09:54:52;;;;;;;16.75;7.63;;;11.30;99.90;;;;;;4916510;28;36268;-78
2024/01/30 09:57:18;;;;;;;11.32;6.28;;;11.40;99.90;;;;;;4916277;28;37878;-78
2024/01/30 09:59:45;;;;;;;13.93;6.90;;;11.40;99.90;;;;;;4917044;28;38804;-80
2024/01/30 10:02:11;;;;;;;16.20;6.65;;;11.40;99.90;;;;;;4913467;28;35919;-77
2024/01/30 10:04:37;;;;;;;14.52;5.95;;;11.30;99.90;;;;;;4913477;28;38002;-78
2024/01/30 10:07:03;;;;;;;17.45;3.95;;;11.20;99.90;;;;;;4909738;28;38887;-78
2024/01/30 10:09:33;;;;;;;11.50;3.42;;;11.10;99.90;;;;;;4917841;28;37533;-78
2024/01/30 10:12:00;;;;;;;6.90;2.72;;;11.00;99.90;;;;;;4910523;28;36086;-78
2024/01/30 10:14:26;;;;;;;15.70;3.13;;;10.90;99.90;;;;;;4910673;28;36502;-78
2024/01/30 10:16:53;;;;;;;14.48;3.17;;;10.90;99.90;;;;;;4929153;28;39325;-78
2024/01/30 10:19:19;;;;;;;10.30;2.28;;;10.90;99.90;;;;;;4930268;28;39462;-79
2024/01/30 10:21:46;;;;;;;11.13;2.33;;;10.90;99.90;;;;;;4912189;28;37291;-79
2024/01/30 10:24:13;;;;;;;8.57;2.35;;;10.90;99.90;;;;;;4914758;28;35361;-80
2024/01/30 10:26:40;;;;;;;8.80;2.42;;;10.90;99.90;;;;;;4919448;28;41795;-79
2024/01/30 10:29:06;;;;;;;7.00;1.83;;;10.80;99.90;;;;;;4922235;28;36895;-78
2024/01/30 10:31:32;;;;;;;9.15;2.00;;;10.70;99.90;;;;;;4947535;28;38475;-77
2024/01/30 10:33:58;;;;;;;7.25;2.25;;;10.70;99.90;;;;;;4928781;28;37802;-77
2024/01/30 10:36:28;;;;;;;13.27;2.50;;;10.70;99.90;;;;;;4915862;28;37881;-78
2024/01/30 10:38:59;;;;;;;7.40;3.15;;;10.70;99.90;;;;;;4929493;28;38614;-78
2024/01/30 10:41:27;;;;;;;6.07;2.50;;;10.70;99.90;;;;;;4916875;28;37790;-77
2024/01/30 10:44:13;;;;;;;4.87;2.33;;;10.60;99.90;;;;;;4919862;28;36381;-79
2024/01/30 10:46:41;;;;;;;11.67;2.27;;;10.50;99.90;;;;;;4920478;28;47069;-78
2024/01/30 10:49:07;;;;;;;7.03;2.30;;;10.50;99.90;;;;;;4934777;28;38067;-77
2024/01/30 10:51:36;;;;;;;8.33;2.27;;;10.40;99.90;;;;;;4921388;28;39030;-78
2024/01/30 10:54:04;;;;;;;5.83;1.97;;;10.40;99.90;;;;;;4937851;28;36557;-80
2024/01/30 10:56:33;;;;;;;5.33;1.73;;;10.40;99.90;;;;;;4945201;28;38860;-77
2024/01/30 10:59:00;;;;;;;5.63;1.70;;;10.30;99.90;;;;;;4927174;28;37648;-78
2024/01/30 11:01:27;;;;;;;7.67;1.90;;;10.30;99.90;;;;;;4958418;28;38911;-77
2024/01/30 11:03:56;;;;;;;8.37;2.03;;;10.20;99.90;;;;;;4922562;28;36142;-78
2024/01/30 11:06:23;;;;;;;7.10;1.83;;;10.20;99.90;;;;;;4915227;28;38091;-77
2024/01/30 11:09:10;;;;;;;7.90;1.80;;;10.20;99.90;;;;;;4935630;28;39392;-78
2024/01/30 11:12:02;;;;;;;13.90;2.20;;;10.00;99.90;;;;;;4932784;28;48181;-79
2024/01/30 11:14:33;;;;;;;8.40;1.73;;;10.00;99.90;;;;;;4933044;28;49170;-78
2024/01/30 11:16:59;;;;;;;7.93;1.50;;;9.80;99.90;;;;;;4915320;28;37724;-78
2024/01/30 11:19:26;;;;;;;6.23;1.40;;;9.80;99.90;;;;;;4933293;28;38156;-78
2024/01/30 11:21:58;;;;;;;12.53;1.87;;;9.80;99.90;;;;;;4912156;28;38380;-79
2024/01/30 11:24:25;;;;;;;10.23;1.70;;;9.80;99.90;;;;;;4938032;28;37882;-80
2024/01/30 11:26:58;;;;;;;8.57;1.37;;;9.70;99.90;;;;;;4936726;28;38084;-80
2024/01/30 11:29:30;;;;;;;9.30;1.87;;;9.70;99.90;;;;;;4934895;28;38341;-80
2024/01/30 11:31:59;;;;;;;7.78;1.38;;;9.80;99.90;;;;;;4917980;28;39104;-79
2024/01/30 11:34:25;;;;;;;8.17;1.20;;;9.80;99.90;;;;;;4931249;28;37221;-79
2024/01/30 11:37:00;;;;;;;8.43;1.37;;;9.80;99.90;;;;;;4915970;28;37824;-78
2024/01/30 11:39:26;;;;;;;7.07;0.87;;;9.90;99.90;;;;;;4920568;28;40177;-78
2024/01/30 11:41:53;;;;;;;4.97;0.80;;;9.90;98.20;;;;;;4928653;28;37285;-79
2024/01/30 11:44:20;;;;;;;5.80;0.87;;;9.90;96.20;;;;;;4933443;28;36974;-80
2024/01/30 11:46:48;;;;;;;7.27;1.00;;;9.90;98.40;;;;;;4934605;28;39710;-79
2024/01/30 11:49:18;;;;;;;8.13;1.47;;;9.90;99.60;;;;;;4914007;28;39042;-78
2024/01/30 11:51:48;;;;;;;5.70;1.10;;;9.80;99.90;;;;;;4914178;28;36789;-78
2024/01/30 11:54:16;;;;;;;8.90;1.53;;;9.80;99.90;;;;;;4917326;28;35771;-80
2024/01/30 11:56:43;;;;;;;6.23;1.17;;;9.80;99.90;;;;;;4916167;28;38236;-79
2024/01/30 11:59:09;;;;;;;6.47;1.10;;;9.80;99.90;;;;;;4912034;28;37984;-79
2024/01/30 12:01:36;;;;;;;5.93;1.40;;;9.80;99.90;;;;;;4917835;28;36914;-79
2024/01/30 12:04:02;;;;;;;5.33;1.17;;;9.80;99.90;;;;;;4927332;28;36037;-79
2024/01/30 12:06:29;;;;;;;12.67;1.47;;;9.90;99.90;;;;;;4918640;28;37960;-79
2024/01/30 12:08:59;;;;;;;12.10;1.37;;;9.80;99.90;;;;;;4940531;28;38682;-79
2024/01/30 12:11:26;;;;;;;8.27;1.33;;;9.80;99.90;;;;;;4912754;28;36613;-79
2024/01/30 12:13:53;;;;;;;9.60;1.60;;;9.80;99.90;;;;;;4918949;28;37326;-78
2024/01/30 12:16:20;;;;;;;11.03;1.30;;;9.70;99.90;;;;;;4934595;28;38655;-78
2024/01/30 12:18:47;;;;;;;7.53;1.20;;;9.70;99.90;;;;;;4913841;28;37327;-78
2024/01/30 12:21:16;;;;;;;9.50;1.20;;;9.70;99.90;;;;;;4929397;28;35655;-77
2024/01/30 12:23:43;;;;;;;7.67;1.33;;;9.60;99.90;;;;;;4924974;28;36449;-78
2024/01/30 12:26:10;;;;;;;13.53;1.50;;;9.60;99.90;;;;;;4938384;28;37980;-78
2024/01/30 12:28:36;;;;;;;11.20;1.50;;;9.60;99.90;;;;;;4939035;28;37604;-78
2024/01/30 12:31:03;;;;;;;11.23;1.70;;;9.50;99.90;;;;;;4951853;28;37524;-78
2024/01/30 12:33:33;;;;;;;12.73;1.87;;;9.60;99.90;;;;;;4937785;28;36724;-81
2024/01/30 12:36:02;;;;;;;11.13;2.07;;;9.50;99.90;;;;;;4945349;28;38944;-79
2024/01/30 12:38:29;;;;;;;7.67;2.03;;;9.60;99.90;;;;;;4924086;28;47124;-79
2024/01/30 12:40:56;;;;;;;9.30;1.47;;;9.50;99.90;;;;;;4919084;28;37424;-78
2024/01/30 12:43:23;;;;;;;10.63;1.53;;;9.50;99.90;;;;;;4925181;28;36042;-78
2024/01/30 12:45:50;;;;;;;9.53;1.40;;;9.50;99.90;;;;;;4918754;28;40092;-78
2024/01/30 12:48:16;;;;;;;10.97;1.60;;;9.50;99.90;;;;;;4929677;28;38736;-79
2024/01/30 12:50:45;;;;;;;8.27;2.33;;;9.60;99.90;;;;;;4933543;28;38753;-81
2024/01/30 12:53:12;;;;;;;7.53;1.13;;;9.60;99.90;;;;;;4920207;28;36485;-81
2024/01/30 12:55:39;;;;;;;5.97;1.33;;;9.60;99.90;;;;;;4935967;28;39617;-81
2024/01/30 12:58:05;;;;;;;5.20;0.97;;;9.60;99.90;;;;;;4909549;28;38923;-81
2024/01/30 13:00:32;;;;;;;9.33;1.90;;;9.60;99.90;;;;;;4913329;28;38648;-80
2024/01/30 13:02:58;;;;;;;7.90;1.20;;;9.60;99.90;;;;;;4917766;28;37912;-80
2024/01/30 13:05:24;;;;;;;6.70;1.33;;;9.60;99.90;;;;;;4936044;28;37923;-81
2024/01/30 13:07:54;;;;;;;4.87;1.23;;;9.70;99.90;;;;;;4923015;28;37272;-80
2024/01/30 13:10:20;;;;;;;7.53;1.30;;;9.60;99.90;;;;;;4924302;28;38838;-80
2024/01/30 13:12:49;;;;;;;11.73;1.53;;;9.70;99.90;;;;;;4917007;28;37104;-81
2024/01/30 13:15:15;;;;;;;7.13;1.87;;;9.60;99.90;;;;;;4922298;28;40147;-80
2024/01/30 13:17:43;;;;;;;5.93;1.50;;;9.60;99.90;;;;;;4919147;28;38894;-80
2024/01/30 13:20:09;;;;;;;10.60;1.73;;;9.60;99.90;;;;;;4925137;28;38321;-82
2024/01/30 13:25:21;;;;;;;9.30;1.93;;;9.60;99.90;;;;;;5419621;23;20050;-82
2024/01/30 13:27:48;;;;;;;10.40;2.50;;;9.50;99.90;;;;;;4947730;28;38751;-77
2024/01/30 13:30:17;;;;;;;11.57;1.70;;;9.40;99.90;;;;;;4946873;28;37651;-80
2024/01/30 13:32:44;;;;;;;13.93;2.40;;;9.30;99.90;;;;;;4934839;28;35819;-80
2024/01/30 13:35:10;;;;;;;12.87;2.60;;;9.30;99.90;;;;;;4934766;28;38974;-80
2024/01/30 13:37:36;;;;;;;10.50;2.40;;;9.30;99.90;;;;;;4946717;28;38828;-80
2024/01/30 13:40:40;;;;;;;12.70;1.80;;;9.20;99.90;;;;;;4960825;28;41551;-80
2024/01/30 13:43:06;;;;;;;15.53;2.80;;;9.20;99.90;;;;;;4862340;28;49367;-80
2024/01/30 13:45:33;;;;;;;12.50;2.17;;;9.20;99.90;;;;;;4942049;28;38405;-80
2024/01/30 13:48:03;;;;;;;14.23;2.57;;;9.10;99.90;;;;;;4958310;28;38438;-82
2024/01/30 13:50:29;;;;;;;16.87;3.27;;;9.10;99.90;;;;;;4972384;28;39235;-81
2024/01/30 13:52:56;;;;;;;14.17;2.67;;;9.00;99.90;;;;;;4971432;28;20049;-81
2024/01/30 13:55:23;;;;;;;13.60;2.53;;;9.00;99.90;;;;;;4966533;28;38105;-81
2024/01/30 13:57:51;;;;;;;11.70;2.83;;;9.00;99.90;;;;;;4965906;28;38052;-81
2024/01/30 14:00:22;;;;;;;15.97;2.87;;;9.00;99.90;;;;;;4951870;28;36983;-80
2024/01/30 14:02:48;;;;;;;13.30;2.83;;;8.90;99.90;;;;;;4951999;28;39364;-80
2024/01/30 14:05:24;;;;;;;11.93;3.43;;;8.80;99.90;;;;;;4955148;28;37766;-81